Time;durP1;ratioP1;P1;durP2;ratioP2;P2;SDS_P1;SDS_P2;PMS_P1;PMS_P2;Temp;Humidity;BMP_temperature;BMP_pressure;BME280_temperature;BME280_humidity;BME280_pressure;Samples;Min_cycle;Max_cycle;Signal;HPM_P1;HPM_P2
2023/11/27 00:02:08;;;;;;;16.08;5.50;;;;;;;7.05;70.98;100718.41;5051048;28;20056;-62
2023/11/27 00:04:36;;;;;;;18.90;6.10;;;;;;;7.02;71.44;100719.00;5051930;28;20053;-63
2023/11/27 00:07:04;;;;;;;14.10;5.82;;;;;;;6.85;71.74;100711.25;5051180;28;20049;-65
2023/11/27 00:09:32;;;;;;;11.93;5.70;;;;;;;6.94;71.88;100701.28;5051369;28;20068;-62
2023/11/27 00:12:02;;;;;;;13.45;5.93;;;;;;;6.95;72.23;100702.91;5049774;28;20467;-62
2023/11/27 00:14:29;;;;;;;13.85;5.50;;;;;;;6.80;72.04;100701.16;5041930;28;20144;-63
2023/11/27 00:16:56;;;;;;;12.55;6.78;;;;;;;6.83;72.49;100686.06;5031850;28;20050;-62
2023/11/27 00:19:24;;;;;;;14.13;6.15;;;;;;;6.81;72.28;100683.63;5060611;28;20068;-62
2023/11/27 00:21:51;;;;;;;18.30;6.68;;;;;;;6.85;72.33;100676.44;5043554;28;20044;-62
2023/11/27 00:24:19;;;;;;;13.25;6.03;;;;;;;6.88;72.01;100679.72;5031136;28;20056;-62
2023/11/27 00:26:46;;;;;;;14.50;5.75;;;;;;;6.92;72.11;100675.31;5041954;28;20037;-62
2023/11/27 00:29:13;;;;;;;15.65;5.65;;;;;;;6.88;72.12;100675.06;5057527;28;20056;-62
2023/11/27 00:31:41;;;;;;;14.02;6.07;;;;;;;6.92;71.94;100676.13;5048951;28;20072;-63
2023/11/27 00:34:09;;;;;;;10.63;5.75;;;;;;;6.92;71.88;100675.31;5051406;28;20603;-63
2023/11/27 00:36:36;;;;;;;16.40;6.00;;;;;;;6.88;72.20;100663.28;5050098;28;20052;-62
2023/11/27 00:39:08;;;;;;;13.90;5.40;;;;;;;7.08;71.68;100668.56;5069721;28;20061;-63
2023/11/27 00:41:36;;;;;;;17.08;5.43;;;;;;;7.08;70.95;100652.94;5054276;28;20076;-62
2023/11/27 00:44:04;;;;;;;15.55;5.75;;;;;;;6.82;72.03;100662.53;5052088;28;20045;-62
2023/11/27 00:46:31;;;;;;;16.42;5.78;;;;;;;6.89;71.65;100659.47;5051814;28;20068;-62
2023/11/27 00:48:58;;;;;;;15.70;5.10;;;;;;;6.80;72.04;100654.59;5050773;28;20045;-62
2023/11/27 00:51:25;;;;;;;14.07;5.30;;;;;;;6.79;71.83;100655.72;5041168;28;20053;-62
2023/11/27 00:53:53;;;;;;;14.93;5.57;;;;;;;7.08;71.31;100646.66;5033452;28;20057;-62
2023/11/27 00:56:20;;;;;;;14.35;5.35;;;;;;;7.17;70.66;100644.88;5033783;28;20053;-61
2023/11/27 00:58:47;;;;;;;18.30;5.65;;;;;;;7.24;70.15;100634.38;5051184;28;20048;-62
2023/11/27 01:01:14;;;;;;;14.30;5.68;;;;;;;7.06;70.53;100635.16;5054232;28;20079;-62
2023/11/27 01:03:42;;;;;;;12.23;5.30;;;;;;;7.05;70.71;100626.13;5034815;28;20049;-62
2023/11/27 01:06:13;;;;;;;13.63;5.22;;;;;;;6.87;71.40;100624.13;5049469;28;20060;-62
2023/11/27 01:08:41;;;;;;;17.58;7.75;;;;;;;7.11;71.13;100619.50;5053100;28;20160;-61
2023/11/27 01:11:09;;;;;;;16.42;6.82;;;;;;;7.11;70.86;100610.47;5036194;28;20124;-62
2023/11/27 01:13:36;;;;;;;16.08;6.85;;;;;;;7.20;70.10;100598.53;5046747;28;20703;-62
2023/11/27 01:16:04;;;;;;;12.45;4.88;;;;;;;7.31;69.89;100599.22;5032420;28;20057;-62
2023/11/27 01:18:31;;;;;;;15.60;5.53;;;;;;;7.27;69.84;100595.47;5045399;28;20045;-62
2023/11/27 01:20:59;;;;;;;12.93;4.72;;;;;;;7.16;70.09;100592.03;5051804;28;20063;-61
2023/11/27 01:23:27;;;;;;;11.63;5.03;;;;;;;7.19;69.77;100585.13;5052095;28;20049;-61
2023/11/27 01:25:54;;;;;;;11.48;4.95;;;;;;;7.20;69.93;100579.38;5039764;28;20056;-61
2023/11/27 01:28:21;;;;;;;14.45;5.00;;;;;;;7.19;70.23;100575.00;5049848;28;20053;-62
2023/11/27 01:30:48;;;;;;;12.45;4.10;;;;;;;7.19;69.72;100574.19;5058414;28;20057;-62
2023/11/27 01:33:16;;;;;;;15.10;4.43;;;;;;;7.25;69.05;100560.16;5048484;28;20056;-61
2023/11/27 01:35:43;;;;;;;13.98;4.65;;;;;;;7.42;69.02;100559.63;5032482;28;20049;-62
2023/11/27 01:38:10;;;;;;;17.05;4.55;;;;;;;7.30;69.36;100556.50;5059585;28;20061;-62
2023/11/27 01:40:38;;;;;;;11.65;4.68;;;;;;;7.26;69.23;100556.28;5033429;28;20148;-61
2023/11/27 01:43:15;;;;;;;11.38;4.45;;;;;;;7.32;68.90;100551.56;5038278;28;20045;-60
2023/11/27 01:45:42;;;;;;;15.88;4.85;;;;;;;7.36;68.77;100549.81;5045757;28;20041;-63
2023/11/27 01:48:10;;;;;;;18.08;4.60;;;;;;;7.36;68.53;100555.31;5040209;28;20653;-62
2023/11/27 01:50:38;;;;;;;12.73;4.40;;;;;;;7.35;68.64;100554.53;5039915;28;20157;-61
2023/11/27 01:53:05;;;;;;;10.50;3.90;;;;;;;7.41;68.64;100547.84;5030343;28;20049;-62
2023/11/27 01:55:33;;;;;;;13.95;4.22;;;;;;;7.47;68.26;100541.19;5035499;28;20092;-62
2023/11/27 01:58:01;;;;;;;12.20;3.97;;;;;;;7.37;68.51;100543.25;5038362;28;20053;-62
2023/11/27 02:00:28;;;;;;;11.60;4.18;;;;;;;7.41;68.38;100533.34;5036694;28;20053;-62
2023/11/27 02:02:56;;;;;;;14.50;4.38;;;;;;;7.35;68.52;100534.50;5025480;28;20056;-62
2023/11/27 02:05:23;;;;;;;15.20;4.13;;;;;;;7.51;68.20;100528.53;5031810;28;20046;-64
2023/11/27 02:07:50;;;;;;;15.07;4.25;;;;;;;7.37;67.89;100530.38;5031097;28;20551;-62
2023/11/27 02:10:18;;;;;;;13.77;4.03;;;;;;;7.31;68.30;100519.78;5030789;28;20057;-61
2023/11/27 02:12:45;;;;;;;15.13;3.83;;;;;;;7.40;67.88;100518.81;5052496;28;20045;-61
2023/11/27 02:15:13;;;;;;;11.57;3.80;;;;;;;7.48;67.77;100511.88;5048151;28;20045;-62
2023/11/27 02:17:40;;;;;;;11.38;4.00;;;;;;;7.58;66.95;100506.22;5039158;28;20053;-62
2023/11/27 02:20:09;;;;;;;11.55;4.03;;;;;;;7.56;67.45;100508.44;5052425;28;20700;-61
2023/11/27 02:22:37;;;;;;;12.50;3.60;;;;;;;7.42;67.32;100504.81;5063983;28;20052;-62
2023/11/27 02:25:04;;;;;;;10.57;3.78;;;;;;;7.62;67.26;100502.56;5045508;28;20056;-61
2023/11/27 02:27:32;;;;;;;12.68;3.92;;;;;;;7.59;67.12;100486.72;5032685;28;20080;-61
2023/11/27 02:29:59;;;;;;;11.63;3.95;;;;;;;7.45;67.82;100494.06;5030316;28;20049;-61
2023/11/27 02:32:28;;;;;;;11.48;3.13;;;;;;;7.44;67.37;100499.84;5036829;28;20049;-61
2023/11/27 02:34:55;;;;;;;11.93;3.50;;;;;;;7.30;67.92;100488.03;5054170;28;20083;-63
2023/11/27 02:37:22;;;;;;;10.57;3.67;;;;;;;7.50;67.94;100469.31;5055154;28;20049;-62
2023/11/27 02:39:50;;;;;;;9.07;3.65;;;;;;;7.51;68.16;100470.97;5050656;28;20052;-62
2023/11/27 02:42:17;;;;;;;11.32;3.60;;;;;;;7.32;68.51;100458.41;5052127;28;20063;-61
2023/11/27 02:44:44;;;;;;;11.65;4.10;;;;;;;7.19;69.54;100456.41;5051008;28;20049;-61
2023/11/27 02:47:12;;;;;;;10.95;3.63;;;;;;;7.22;70.21;100450.34;5058503;28;20061;-61
2023/11/27 02:49:39;;;;;;;11.20;3.50;;;;;;;7.33;69.75;100447.16;5051491;28;20070;-62
2023/11/27 02:52:06;;;;;;;12.05;3.78;;;;;;;7.40;70.26;100444.84;5051210;28;20064;-62
2023/11/27 02:54:33;;;;;;;10.93;3.83;;;;;;;7.34;70.71;100443.28;5051267;28;20408;-61
2023/11/27 02:57:01;;;;;;;15.07;3.97;;;;;;;7.34;70.95;100442.50;5050630;28;20488;-62
2023/11/27 02:59:28;;;;;;;9.48;3.40;;;;;;;7.20;71.47;100431.44;5050931;28;20511;-62
2023/11/27 03:01:55;;;;;;;9.57;3.33;;;;;;;7.12;71.80;100431.31;5051163;28;20060;-61
2023/11/27 03:04:25;;;;;;;14.50;4.00;;;;;;;7.22;72.12;100418.28;5050208;28;20701;-62
2023/11/27 03:06:53;;;;;;;10.45;3.05;;;;;;;7.24;71.78;100415.25;5051708;28;20092;-61
2023/11/27 03:09:21;;;;;;;12.38;3.03;;;;;;;7.02;71.68;100415.88;5051685;28;20060;-62
2023/11/27 03:11:49;;;;;;;9.98;3.22;;;;;;;7.16;71.50;100397.56;5048653;28;20060;-61
2023/11/27 03:14:16;;;;;;;11.80;3.80;;;;;;;7.27;70.81;100393.53;5029398;28;20041;-62
2023/11/27 03:16:44;;;;;;;9.77;3.10;;;;;;;7.33;70.22;100392.34;5030278;28;20409;-62
2023/11/27 03:19:11;;;;;;;11.15;3.53;;;;;;;7.37;70.24;100396.13;5085694;28;20048;-62
2023/11/27 03:21:38;;;;;;;11.23;3.42;;;;;;;7.36;69.84;100391.75;5071853;28;20075;-64
2023/11/27 03:24:06;;;;;;;11.93;3.05;;;;;;;7.27;70.13;100398.22;5069644;28;20063;-63
2023/11/27 03:26:34;;;;;;;9.18;3.22;;;;;;;7.23;69.61;100389.78;5056632;28;20059;-64
2023/11/27 03:29:02;;;;;;;10.13;2.83;;;;;;;7.13;68.97;100380.94;5070254;28;20396;-64
2023/11/27 03:31:29;;;;;;;6.47;2.78;;;;;;;7.18;69.23;100383.56;5071519;28;20048;-64
2023/11/27 03:33:58;;;;;;;11.82;3.10;;;;;;;7.20;68.66;100378.63;5061059;28;20056;-64
2023/11/27 03:36:25;;;;;;;12.18;3.40;;;;;;;7.15;68.38;100367.75;5012973;28;20068;-63
2023/11/27 03:38:53;;;;;;;7.65;2.90;;;;;;;7.34;68.52;100365.78;5030688;28;20053;-63
2023/11/27 03:41:21;;;;;;;9.75;3.40;;;;;;;7.30;68.26;100356.53;5045547;28;20064;-63
2023/11/27 03:43:48;;;;;;;8.05;2.85;;;;;;;7.45;67.68;100354.31;5050336;28;20049;-61
2023/11/27 03:46:15;;;;;;;9.88;3.33;;;;;;;7.27;67.61;100346.97;5050667;28;20072;-61
2023/11/27 03:48:43;;;;;;;8.48;3.15;;;;;;;7.31;67.20;100339.78;5050088;28;20080;-62
2023/11/27 03:51:10;;;;;;;8.00;2.75;;;;;;;7.28;67.08;100334.09;5049179;28;20060;-63
2023/11/27 03:53:39;;;;;;;8.40;2.83;;;;;;;7.24;66.78;100322.09;5048842;28;20452;-61
2023/11/27 03:56:06;;;;;;;6.63;2.78;;;;;;;7.31;67.66;100325.25;5036233;28;20055;-61
2023/11/27 03:58:34;;;;;;;8.82;2.65;;;;;;;7.06;68.26;100321.03;5054644;28;20037;-61
2023/11/27 04:01:04;;;;;;;7.68;2.92;;;;;;;7.00;69.58;100307.75;5049704;28;20052;-62
2023/11/27 04:03:32;;;;;;;11.00;3.42;;;;;;;7.03;69.52;100304.41;5045966;28;20160;-63
2023/11/27 04:06:31;;;;;;;11.00;3.50;;;;;;;7.07;70.50;100295.28;5049968;28;20056;-66
2023/11/27 04:09:05;;;;;;;7.38;2.90;;;;;;;7.01;71.54;100291.00;5050975;28;20056;-64
2023/11/27 04:11:36;;;;;;;7.38;3.00;;;;;;;6.98;71.91;100297.09;5015959;28;20053;-62
2023/11/27 04:14:14;;;;;;;9.30;3.05;;;;;;;6.89;72.90;100289.88;5048098;28;20403;-63
2023/11/27 04:16:49;;;;;;;9.57;3.53;;;;;;;6.84;73.92;100283.38;5033851;28;20042;-65
2023/11/27 04:19:42;;;;;;;9.77;3.17;;;;;;;6.95;74.43;100284.00;5057020;28;20048;-61
2023/11/27 04:22:10;;;;;;;11.15;4.03;;;;;;;6.74;75.14;100280.81;5073275;28;20075;-62
2023/11/27 04:24:48;;;;;;;10.07;3.55;;;;;;;6.61;75.60;100278.81;5073276;28;20048;-63
2023/11/27 04:27:22;;;;;;;10.30;3.22;;;;;;;6.70;77.02;100284.41;5038910;28;20053;-64
2023/11/27 04:29:53;;;;;;;9.55;3.33;;;;;;;6.76;77.17;100283.25;5035181;28;20050;-64
2023/11/27 04:32:22;;;;;;;9.60;4.13;;;;;;;6.68;78.11;100276.50;5036779;28;20048;-65
2023/11/27 04:35:05;;;;;;;7.20;3.28;;;;;;;6.39;80.50;100275.88;5027636;28;20056;-64
2023/11/27 04:37:32;;;;;;;11.32;3.65;;;;;;;6.43;82.17;100273.38;5053014;28;20064;-64
2023/11/27 04:40:14;;;;;;;11.43;4.38;;;;;;;6.57;82.57;100277.00;5053222;28;20045;-64
2023/11/27 04:42:59;;;;;;;8.93;3.47;;;;;;;6.38;83.91;100263.31;5016755;28;20071;-64
2023/11/27 04:45:28;;;;;;;8.20;3.63;;;;;;;6.40;85.61;100263.00;5052842;28;20041;-63
2023/11/27 04:47:56;;;;;;;10.77;4.03;;;;;;;6.47;86.26;100260.69;5036428;28;20060;-64
2023/11/27 04:50:24;;;;;;;10.52;3.67;;;;;;;6.43;86.19;100248.75;5052432;28;20059;-65
2023/11/27 04:52:52;;;;;;;10.63;4.00;;;;;;;6.12;88.92;100251.13;5052698;28;20045;-63
2023/11/27 04:55:28;;;;;;;8.02;3.35;;;;;;;6.17;90.42;100237.38;5052194;28;20049;-64
2023/11/27 04:58:12;;;;;;;10.82;4.18;;;;;;;6.23;90.98;100224.44;5049601;28;20052;-64
2023/11/27 05:01:07;;;;;;;12.27;4.32;;;;;;;6.22;90.79;100229.13;5034181;28;20064;-65
2023/11/27 05:03:33;;;;;;;10.18;3.92;;;;;;;6.18;91.50;100217.13;5049804;28;20049;-65
2023/11/27 05:06:01;;;;;;;10.60;4.45;;;;;;;6.22;92.20;100203.69;5051321;28;20487;-65
2023/11/27 05:08:28;;;;;;;10.50;4.20;;;;;;;6.22;92.21;100198.22;5052910;28;20064;-66
2023/11/27 05:10:57;;;;;;;10.07;4.32;;;;;;;6.22;92.28;100185.38;5052738;28;20614;-65
2023/11/27 05:13:29;;;;;;;10.88;3.88;;;;;;;6.23;91.75;100183.41;5052535;28;20056;-65
2023/11/27 05:16:01;;;;;;;12.45;4.47;;;;;;;6.03;92.06;100184.56;5035348;28;20049;-65
2023/11/27 05:18:35;;;;;;;9.82;3.85;;;;;;;6.16;92.17;100177.50;5055337;28;20098;-65
2023/11/27 05:21:02;;;;;;;9.80;4.20;;;;;;;6.21;92.18;100183.72;5051554;28;20045;-64
2023/11/27 05:23:32;;;;;;;12.77;4.20;;;;;;;6.39;91.99;100171.13;5035422;28;20060;-63
2023/11/27 05:29:01;;;;;;;12.85;4.57;;;;;;;6.58;90.02;100172.72;5052442;28;20044;-63
2023/11/27 05:31:28;;;;;;;9.48;4.15;;;;;;;6.60;90.59;100161.47;5053597;28;20140;-61
2023/11/27 05:33:57;;;;;;;15.43;4.50;;;;;;;6.33;90.89;100158.66;5067444;28;20049;-61
2023/11/27 05:36:25;;;;;;;12.50;4.65;;;;;;;6.34;91.56;100147.41;5068005;28;20060;-61
2023/11/27 05:38:53;;;;;;;12.88;4.75;;;;;;;6.28;92.42;100147.78;5054463;28;20049;-61
2023/11/27 05:41:41;;;;;;;12.48;4.25;;;;;;;6.37;92.62;100138.59;5062446;28;20048;-62
2023/11/27 05:44:10;;;;;;;11.32;5.32;;;;;;;6.39;92.57;100141.84;5073320;28;20400;-63
2023/11/27 05:46:41;;;;;;;13.07;5.10;;;;;;;6.49;92.26;100133.47;5071006;28;20687;-62
2023/11/27 05:49:10;;;;;;;12.20;4.85;;;;;;;6.42;92.71;100127.56;5036644;28;20045;-61
2023/11/27 05:51:45;;;;;;;13.48;4.90;;;;;;;6.36;92.79;100131.50;5052515;28;20071;-61
2023/11/27 05:54:24;;;;;;;10.68;4.72;;;;;;;6.46;93.09;100122.31;5037659;28;20049;-62
2023/11/27 05:57:22;;;;;;;11.25;5.05;;;;;;;6.48;93.22;100126.38;5035537;28;20057;-64
2023/11/27 06:00:15;;;;;;;11.13;5.18;;;;;;;6.58;93.52;100122.63;5053229;28;20060;-64
2023/11/27 06:02:45;;;;;;;13.20;5.20;;;;;;;6.63;94.07;100120.63;5033806;28;20048;-63
2023/11/27 06:05:15;;;;;;;17.05;5.15;;;;;;;6.62;93.84;100119.00;5049950;28;20787;-64
2023/11/27 06:07:46;;;;;;;14.27;5.50;;;;;;;6.68;94.58;100114.22;5056995;28;20045;-65
2023/11/27 06:10:16;;;;;;;12.35;5.18;;;;;;;6.60;94.73;100118.50;5060467;28;20063;-64
2023/11/27 06:12:50;;;;;;;13.40;5.82;;;;;;;6.54;95.90;100105.19;5048474;28;20079;-64
2023/11/27 06:15:46;;;;;;;10.13;5.38;;;;;;;6.63;96.24;100101.47;5031976;28;20056;-64
2023/11/27 06:18:33;;;;;;;13.23;4.97;;;;;;;6.58;96.46;100089.81;5057758;28;20412;-66
2023/11/27 06:21:23;;;;;;;10.77;5.18;;;;;;;6.78;96.69;100084.75;5049869;28;20068;-65
2023/11/27 06:24:08;;;;;;;12.90;5.57;;;;;;;6.92;96.22;100083.94;5051696;28;20052;-64
2023/11/27 06:26:41;;;;;;;9.13;4.72;;;;;;;6.85;95.58;100084.38;5040985;28;20048;-65
2023/11/27 06:29:08;;;;;;;10.73;5.05;;;;;;;6.80;96.71;100082.53;5044936;28;20060;-64
2023/11/27 06:31:36;;;;;;;10.23;4.97;;;;;;;6.88;97.59;100071.97;5042608;28;20520;-65
2023/11/27 06:34:03;;;;;;;13.23;5.65;;;;;;;6.88;97.23;100070.06;5063967;28;20057;-64
2023/11/27 06:36:30;;;;;;;12.18;4.88;;;;;;;6.81;97.17;100059.53;5041089;28;20551;-65
2023/11/27 06:38:58;;;;;;;12.15;5.30;;;;;;;6.90;97.85;100067.00;5067123;28;20052;-65
2023/11/27 06:41:25;;;;;;;11.95;4.95;;;;;;;6.80;96.85;100054.34;5052494;28;20132;-65
2023/11/27 06:43:52;;;;;;;9.80;4.65;;;;;;;6.90;97.30;100048.69;5031329;28;20064;-65
2023/11/27 06:46:19;;;;;;;8.25;4.05;;;;;;;6.81;97.50;100045.84;5042379;28;20067;-64
2023/11/27 06:48:47;;;;;;;12.00;4.72;;;;;;;6.76;98.05;100045.13;5036315;28;20045;-63
2023/11/27 06:51:14;;;;;;;9.13;4.35;;;;;;;6.67;98.52;100036.81;5049481;28;20048;-63
2023/11/27 06:53:42;;;;;;;9.13;4.85;;;;;;;6.95;99.17;100045.00;5069965;28;20822;-64
2023/11/27 06:56:10;;;;;;;9.23;4.72;;;;;;;6.82;97.81;100031.03;5053383;28;20538;-64
2023/11/27 06:58:38;;;;;;;11.40;5.10;;;;;;;6.79;98.60;100031.66;5053723;28;20060;-65
2023/11/27 07:01:12;;;;;;;8.05;4.35;;;;;;;6.81;99.14;100028.59;5050532;28;20059;-63
2023/11/27 07:03:40;;;;;;;7.07;3.92;;;;;;;7.01;98.58;100019.16;5050442;28;20055;-65
2023/11/27 07:06:08;;;;;;;10.05;4.50;;;;;;;7.06;99.01;100010.81;5050516;28;20056;-65
2023/11/27 07:08:35;;;;;;;8.73;4.10;;;;;;;6.93;98.37;100009.72;5050206;28;20535;-65
2023/11/27 07:11:05;;;;;;;9.00;4.00;;;;;;;6.94;98.16;100002.34;5050487;28;20055;-64
2023/11/27 07:13:32;;;;;;;7.63;4.55;;;;;;;7.01;98.47;99997.25;5052305;28;20056;-63
2023/11/27 07:16:00;;;;;;;7.55;4.10;;;;;;;6.99;98.47;100004.97;5050750;28;20416;-64
2023/11/27 07:21:21;;;;;;;8.73;4.65;;;;;;;6.81;99.24;99993.03;5070291;28;20663;-64
2023/11/27 07:23:49;;;;;;;9.80;4.30;;;;;;;6.82;99.14;99986.41;5071734;28;20055;-64
2023/11/27 07:26:17;;;;;;;8.00;4.10;;;;;;;7.00;98.69;99979.19;5055327;28;20049;-65
2023/11/27 07:28:44;;;;;;;6.85;3.67;;;;;;;7.07;97.50;99983.13;5029871;28;20065;-65
2023/11/27 07:31:13;;;;;;;10.68;4.00;;;;;;;6.80;97.34;99986.72;5037380;28;20492;-65
2023/11/27 07:33:41;;;;;;;8.60;4.20;;;;;;;7.09;98.68;99983.66;5057447;28;20056;-64
2023/11/27 07:36:08;;;;;;;8.98;3.83;;;;;;;7.07;97.85;99985.88;5052154;28;20052;-64
2023/11/27 07:38:36;;;;;;;7.10;3.88;;;;;;;6.97;97.21;99979.81;5051554;28;20051;-64
2023/11/27 07:41:07;;;;;;;6.47;3.40;;;;;;;7.02;98.84;99974.22;5066363;28;20060;-65
2023/11/27 07:43:35;;;;;;;7.65;3.80;;;;;;;6.98;98.51;99970.47;5050437;28;20041;-65
2023/11/27 07:46:06;;;;;;;7.45;3.58;;;;;;;7.05;97.72;99960.72;5049656;28;20545;-64
2023/11/27 07:48:34;;;;;;;5.38;3.42;;;;;;;7.00;98.02;99960.03;5054374;28;20075;-64
2023/11/27 07:51:05;;;;;;;5.65;3.28;;;;;;;6.98;97.85;99954.88;5054210;28;20051;-66
2023/11/27 07:53:33;;;;;;;5.93;3.50;;;;;;;6.98;98.96;99952.13;5070315;28;20436;-65
2023/11/27 07:56:00;;;;;;;8.10;3.20;;;;;;;7.39;97.88;99950.03;5053865;28;20097;-64
2023/11/27 07:58:28;;;;;;;7.47;3.45;;;;;;;7.35;96.88;99934.56;5054307;28;20052;-65
2023/11/27 08:00:55;;;;;;;6.07;3.00;;;;;;;7.27;97.09;99929.84;5051386;28;20402;-63
2023/11/27 08:03:22;;;;;;;6.00;3.28;;;;;;;7.40;96.81;99928.94;5052143;28;20049;-63
2023/11/27 08:05:51;;;;;;;6.65;3.00;;;;;;;7.29;96.35;99925.63;5054609;28;20049;-63
2023/11/27 08:08:19;;;;;;;6.72;2.70;;;;;;;7.23;96.25;99918.69;5049149;28;20056;-64
2023/11/27 08:10:46;;;;;;;4.78;2.50;;;;;;;7.29;96.61;99916.59;5051742;28;20068;-63
2023/11/27 08:13:13;;;;;;;5.78;2.78;;;;;;;7.30;96.51;99923.72;5055097;28;20083;-65
2023/11/27 08:15:42;;;;;;;6.25;2.95;;;;;;;7.24;96.70;99908.50;5053364;28;20436;-63
2023/11/27 08:18:11;;;;;;;6.50;2.75;;;;;;;7.20;96.86;99908.31;5048238;28;20044;-63
2023/11/27 08:20:40;;;;;;;5.43;2.33;;;;;;;7.13;96.67;99901.69;5047330;28;20048;-64
2023/11/27 08:23:08;;;;;;;6.15;3.00;;;;;;;7.12;96.99;99891.84;5057696;28;20060;-63
2023/11/27 08:25:37;;;;;;;5.45;2.70;;;;;;;7.23;97.27;99899.50;5038754;28;20056;-65
2023/11/27 08:28:05;;;;;;;5.57;2.80;;;;;;;7.32;95.97;99905.84;5052081;28;20052;-64
2023/11/27 08:30:32;;;;;;;5.00;2.42;;;;;;;7.25;96.44;99896.47;5053333;28;20064;-64
2023/11/27 08:33:03;;;;;;;5.22;2.60;;;;;;;7.35;97.00;99880.59;5054551;28;20068;-63
2023/11/27 08:35:34;;;;;;;5.15;2.78;;;;;;;7.51;96.80;99864.56;5047223;28;20068;-62
2023/11/27 08:38:02;;;;;;;5.93;2.72;;;;;;;7.53;95.65;99856.84;5049309;28;20048;-62
2023/11/27 08:40:32;;;;;;;5.15;2.72;;;;;;;7.52;96.36;99846.97;5052190;28;20060;-63
2023/11/27 08:43:02;;;;;;;6.28;2.63;;;;;;;7.63;96.74;99848.34;5043105;28;20044;-63
2023/11/27 08:45:29;;;;;;;;;;;;;;;7.74;95.69;99864.19;5057978;28;20498;-63
2023/11/27 08:48:00;;;;;;;7.30;3.47;;;;;;;7.60;95.32;99871.69;5033052;28;19928;-63
2023/11/27 08:50:35;;;;;;;5.97;3.03;;;;;;;7.70;95.80;99855.00;5042164;28;20461;-66
2023/11/27 08:53:05;;;;;;;7.88;3.92;;;;;;;7.60;96.76;99858.00;5051228;28;20049;-62
2023/11/27 08:55:33;;;;;;;8.10;4.65;;;;;;;7.53;97.10;99843.13;5051482;28;20048;-62
2023/11/27 08:58:03;;;;;;;6.78;4.38;;;;;;;7.68;97.36;99856.41;5051998;28;20052;-63
2023/11/27 09:00:32;;;;;;;8.10;4.00;;;;;;;7.83;96.02;99839.56;5048755;28;20068;-64
2023/11/27 09:03:00;;;;;;;9.38;4.25;;;;;;;7.65;96.43;99833.19;5040827;28;20076;-63
2023/11/27 09:05:32;;;;;;;8.90;4.28;;;;;;;7.87;96.89;99826.84;5047586;28;20041;-64
2023/11/27 09:08:04;;;;;;;8.98;4.00;;;;;;;8.57;95.72;99816.53;5036700;28;20059;-63
2023/11/27 09:10:33;;;;;;;9.30;3.83;;;;;;;8.40;91.42;99808.31;5048779;28;20048;-63
2023/11/27 09:13:01;;;;;;;9.00;4.32;;;;;;;7.95;93.69;99806.84;5051363;28;20492;-63
2023/11/27 09:15:28;;;;;;;9.65;4.20;;;;;;;8.07;95.01;99807.06;5042861;28;20053;-63
2023/11/27 09:17:56;;;;;;;9.68;4.13;;;;;;;8.14;94.43;99803.84;5048959;28;20423;-63
2023/11/27 09:20:25;;;;;;;9.55;4.47;;;;;;;8.04;94.08;99802.19;5051982;28;20064;-64
2023/11/27 09:22:53;;;;;;;8.82;4.25;;;;;;;7.83;94.19;99801.97;5049011;28;20053;-64
2023/11/27 09:25:20;;;;;;;10.60;4.97;;;;;;;7.71;95.71;99796.31;5024742;28;20578;-65
2023/11/27 09:27:48;;;;;;;9.35;4.63;;;;;;;8.04;96.02;99793.19;5033776;28;20049;-66
2023/11/27 09:30:15;;;;;;;8.98;4.50;;;;;;;7.82;95.67;99785.84;5045488;28;20124;-65
2023/11/27 09:32:42;;;;;;;8.60;4.72;;;;;;;7.92;95.01;99783.63;5044721;28;20063;-64
2023/11/27 09:35:12;;;;;;;8.52;4.32;;;;;;;7.82;96.07;99780.38;5046081;28;20048;-65
2023/11/27 09:37:40;;;;;;;9.80;5.10;;;;;;;7.86;96.43;99781.38;5050217;28;20048;-66
2023/11/27 09:40:10;;;;;;;33.22;18.42;;;;;;;7.91;96.21;99787.47;5044680;28;20063;-66
2023/11/27 09:42:37;;;;;;;9.13;5.65;;;;;;;7.95;96.98;99765.72;5030052;28;20080;-62
2023/11/27 09:45:18;;;;;;;8.63;4.32;;;;;;;7.98;96.76;99778.81;5047554;28;20052;-63
2023/11/27 09:47:48;;;;;;;10.75;5.38;;;;;;;7.94;97.85;99775.91;5049515;28;20059;-63
2023/11/27 09:50:19;;;;;;;9.70;4.60;;;;;;;7.91;97.65;99773.78;5029047;28;20072;-64
2023/11/27 09:52:52;;;;;;;14.13;7.10;;;;;;;7.96;97.35;99764.63;5035377;28;20052;-63
2023/11/27 09:55:23;;;;;;;14.35;4.57;;;;;;;7.85;97.27;99757.81;5050818;28;20045;-62
2023/11/27 09:57:51;;;;;;;8.25;4.55;;;;;;;7.82;97.69;99761.19;5043868;28;20055;-64
2023/11/27 10:00:22;;;;;;;7.30;4.10;;;;;;;7.87;97.90;99759.13;5053639;28;20057;-62
2023/11/27 10:02:51;;;;;;;9.88;4.60;;;;;;;7.85;98.26;99749.56;5035605;28;20374;-62
2023/11/27 10:05:21;;;;;;;12.13;5.15;;;;;;;7.90;97.97;99752.16;5049547;28;20045;-61
2023/11/27 10:07:50;;;;;;;9.38;5.75;;;;;;;7.90;98.47;99752.16;5025241;28;20550;-63
2023/11/27 10:10:28;;;;;;;9.05;4.47;;;;;;;8.01;98.38;99739.78;5048272;28;20068;-63
2023/11/27 10:13:12;;;;;;;7.00;3.83;;;;;;;7.97;98.13;99741.53;5051473;28;20408;-63
2023/11/27 10:15:58;;;;;;;5.97;3.50;;;;;;;8.22;97.43;99737.22;5044728;28;20692;-64
2023/11/27 10:18:25;;;;;;;9.35;4.15;;;;;;;8.28;96.07;99731.28;5044611;28;20057;-62
2023/11/27 10:20:52;;;;;;;6.15;3.47;;;;;;;7.98;97.26;99722.03;5047590;28;20044;-63
2023/11/27 10:23:20;;;;;;;6.72;3.65;;;;;;;7.90;98.93;99717.34;5040834;28;20060;-66
2023/11/27 10:25:56;;;;;;;7.05;3.92;;;;;;;8.16;98.89;99711.09;5040900;28;20056;-61
2023/11/27 10:28:24;;;;;;;8.90;4.18;;;;;;;8.06;99.10;99708.63;5043978;28;20041;-62
2023/11/27 10:30:52;;;;;;;7.82;4.70;;;;;;;8.14;98.51;99705.13;5054625;28;20475;-63
2023/11/27 10:33:21;;;;;;;7.03;3.83;;;;;;;8.07;98.82;99704.78;5050588;28;20045;-62
2023/11/27 10:35:49;;;;;;;9.05;4.28;;;;;;;8.28;98.69;99701.09;5057636;28;20049;-62
2023/11/27 10:38:17;;;;;;;6.68;4.15;;;;;;;8.22;98.57;99687.84;5044052;28;20592;-63
2023/11/27 10:40:45;;;;;;;7.40;4.63;;;;;;;8.34;98.08;99677.06;5039105;28;20548;-63
2023/11/27 10:43:13;;;;;;;11.52;7.68;;;;;;;8.26;98.39;99673.22;5045577;28;20048;-63
2023/11/27 10:45:41;;;;;;;8.30;4.90;;;;;;;8.27;98.15;99668.50;5039538;28;20061;-64
2023/11/27 10:48:09;;;;;;;12.82;7.95;;;;;;;8.47;98.51;99662.38;5041100;28;20041;-63
2023/11/27 10:50:39;;;;;;;9.60;6.13;;;;;;;8.39;97.82;99665.91;5041397;28;20060;-63
2023/11/27 10:53:08;;;;;;;7.97;4.43;;;;;;;8.43;97.78;99645.75;5043247;28;20079;-64
2023/11/27 10:55:35;;;;;;;7.93;3.85;;;;;;;8.61;97.61;99636.34;5047816;28;20068;-63
2023/11/27 10:58:04;;;;;;;7.47;3.90;;;;;;;8.58;97.19;99625.19;5038572;28;20041;-61
2023/11/27 11:00:46;;;;;;;7.32;3.47;;;;;;;8.63;97.12;99628.59;5041121;28;20049;-62
2023/11/27 11:03:15;;;;;;;6.03;3.72;;;;;;;8.65;97.05;99625.50;5050492;28;20056;-63
2023/11/27 11:05:50;;;;;;;6.75;3.72;;;;;;;8.50;96.63;99621.38;5046036;28;20057;-62
2023/11/27 11:08:21;;;;;;;5.88;3.40;;;;;;;8.55;96.98;99615.69;5036708;28;20056;-62
2023/11/27 11:10:49;;;;;;;6.78;4.00;;;;;;;8.63;97.42;99611.31;5045296;28;20053;-64
2023/11/27 11:13:18;;;;;;;7.78;3.95;;;;;;;8.79;96.12;99593.16;5047841;28;20056;-62
2023/11/27 11:16:14;;;;;;;8.50;4.80;;;;;;;8.79;96.43;99579.44;5048956;28;20064;-62
2023/11/27 11:19:06;;;;;;;8.05;4.15;;;;;;;9.30;98.54;99568.19;5043441;28;20060;-63
2023/11/27 11:22:08;;;;;;;8.70;4.25;;;;;;;9.08;95.24;99569.28;5025993;28;20045;-62
2023/11/27 11:24:41;;;;;;;7.97;3.72;;;;;;;9.20;94.98;99562.28;5049128;28;20044;-61
2023/11/27 11:27:31;;;;;;;8.57;4.35;;;;;;;9.21;95.04;99561.13;5053888;28;20049;-61
2023/11/27 11:29:58;;;;;;;6.97;4.05;;;;;;;9.59;93.88;99553.63;5045117;28;20049;-62
2023/11/27 11:32:28;;;;;;;14.00;7.20;;;;;;;9.42;93.34;99556.47;5048387;28;20049;-62
2023/11/27 11:34:59;;;;;;;35.42;13.48;;;;;;;9.37;93.56;99552.00;5051479;28;20196;-62
2023/11/27 11:37:28;;;;;;;25.10;12.52;;;;;;;9.58;93.35;99547.31;5039981;28;20054;-62
2023/11/27 11:39:56;;;;;;;20.33;11.10;;;;;;;9.55;92.57;99553.50;5033749;28;20481;-62
2023/11/27 11:42:32;;;;;;;21.00;9.88;;;;;;;9.26;93.97;99545.28;5043265;28;20049;-64
2023/11/27 11:45:17;;;;;;;17.92;7.97;;;;;;;9.20;95.73;99548.56;5046673;28;20056;-64
2023/11/27 11:47:51;;;;;;;9.90;5.28;;;;;;;9.13;95.96;99540.03;5029736;28;20068;-63
2023/11/27 11:50:41;;;;;;;15.70;5.65;;;;;;;9.17;96.07;99532.75;5046421;28;20055;-62
2023/11/27 11:53:14;;;;;;;14.30;5.37;;;;;;;9.17;95.99;99528.03;5043477;28;20555;-63